sensor_id;sensor_type;location;lat;lon;timestamp;P1;durP1;ratioP1;P2;durP2;ratioP2
76115;SDS011;64847;45.778;12.802;2022-12-18T00:01:49;3.33;;;3.10;;
76115;SDS011;64847;45.778;12.802;2022-12-18T00:04:21;3.47;;;3.00;;
76115;SDS011;64847;45.778;12.802;2022-12-18T00:06:48;3.23;;;3.03;;
76115;SDS011;64847;45.778;12.802;2022-12-18T00:09:13;3.10;;;2.90;;
76115;SDS011;64847;45.778;12.802;2022-12-18T00:11:39;3.37;;;3.07;;
76115;SDS011;64847;45.778;12.802;2022-12-18T00:14:04;2.97;;;2.77;;
76115;SDS011;64847;45.778;12.802;2022-12-18T00:16:29;3.67;;;3.13;;
76115;SDS011;64847;45.778;12.802;2022-12-18T00:18:57;3.20;;;3.00;;
76115;SDS011;64847;45.778;12.802;2022-12-18T00:21:23;3.20;;;3.00;;
76115;SDS011;64847;45.778;12.802;2022-12-18T00:23:49;3.87;;;3.57;;
76115;SDS011;64847;45.778;12.802;2022-12-18T00:26:16;3.17;;;2.97;;
76115;SDS011;64847;45.778;12.802;2022-12-18T00:28:46;2.93;;;2.83;;
76115;SDS011;64847;45.778;12.802;2022-12-18T00:31:13;3.30;;;3.10;;
76115;SDS011;64847;45.778;12.802;2022-12-18T00:33:41;3.23;;;3.03;;
76115;SDS011;64847;45.778;12.802;2022-12-18T00:36:09;3.10;;;2.90;;
76115;SDS011;64847;45.778;12.802;2022-12-18T00:38:39;2.83;;;2.67;;
76115;SDS011;64847;45.778;12.802;2022-12-18T00:41:05;3.27;;;3.07;;
76115;SDS011;64847;45.778;12.802;2022-12-18T00:43:31;3.20;;;3.00;;
76115;SDS011;64847;45.778;12.802;2022-12-18T00:45:56;3.50;;;3.30;;
76115;SDS011;64847;45.778;12.802;2022-12-18T00:48:22;3.40;;;3.20;;
76115;SDS011;64847;45.778;12.802;2022-12-18T00:50:48;3.40;;;3.20;;
76115;SDS011;64847;45.778;12.802;2022-12-18T00:53:14;3.40;;;3.20;;
76115;SDS011;64847;45.778;12.802;2022-12-18T00:55:42;3.13;;;2.93;;
76115;SDS011;64847;45.778;12.802;2022-12-18T00:58:08;2.80;;;2.60;;
76115;SDS011;64847;45.778;12.802;2022-12-18T01:00:34;3.43;;;3.23;;
76115;SDS011;64847;45.778;12.802;2022-12-18T01:02:59;3.03;;;2.83;;
76115;SDS011;64847;45.778;12.802;2022-12-18T01:05:25;3.20;;;3.00;;
76115;SDS011;64847;45.778;12.802;2022-12-18T01:07:51;3.30;;;3.10;;
76115;SDS011;64847;45.778;12.802;2022-12-18T01:10:16;3.23;;;3.03;;
76115;SDS011;64847;45.778;12.802;2022-12-18T01:12:42;3.13;;;2.93;;
76115;SDS011;64847;45.778;12.802;2022-12-18T01:15:07;3.40;;;3.20;;
76115;SDS011;64847;45.778;12.802;2022-12-18T01:17:34;3.30;;;3.10;;
76115;SDS011;64847;45.778;12.802;2022-12-18T01:19:59;3.33;;;3.13;;
76115;SDS011;64847;45.778;12.802;2022-12-18T01:22:25;3.07;;;2.87;;
76115;SDS011;64847;45.778;12.802;2022-12-18T01:24:51;3.70;;;3.40;;
76115;SDS011;64847;45.778;12.802;2022-12-18T01:27:19;3.17;;;2.97;;
76115;SDS011;64847;45.778;12.802;2022-12-18T01:29:44;3.53;;;3.33;;
76115;SDS011;64847;45.778;12.802;2022-12-18T01:32:10;3.30;;;3.07;;
76115;SDS011;64847;45.778;12.802;2022-12-18T01:34:36;3.27;;;3.07;;
76115;SDS011;64847;45.778;12.802;2022-12-18T01:37:02;3.63;;;3.33;;
76115;SDS011;64847;45.778;12.802;2022-12-18T01:39:29;3.23;;;3.03;;
76115;SDS011;64847;45.778;12.802;2022-12-18T01:41:54;3.23;;;3.03;;
76115;SDS011;64847;45.778;12.802;2022-12-18T01:47:12;3.13;;;2.93;;
76115;SDS011;64847;45.778;12.802;2022-12-18T01:49:45;3.83;;;3.53;;
76115;SDS011;64847;45.778;12.802;2022-12-18T01:52:10;3.63;;;3.33;;
76115;SDS011;64847;45.778;12.802;2022-12-18T01:54:36;4.00;;;3.70;;
76115;SDS011;64847;45.778;12.802;2022-12-18T01:57:01;4.07;;;3.77;;
76115;SDS011;64847;45.778;12.802;2022-12-18T01:59:27;3.60;;;3.40;;
76115;SDS011;64847;45.778;12.802;2022-12-18T02:01:53;3.87;;;3.57;;
76115;SDS011;64847;45.778;12.802;2022-12-18T02:04:19;3.87;;;3.67;;
76115;SDS011;64847;45.778;12.802;2022-12-18T02:09:44;3.63;;;3.37;;
76115;SDS011;64847;45.778;12.802;2022-12-18T02:20:18;4.23;;;3.93;;
76115;SDS011;64847;45.778;12.802;2022-12-18T02:23:31;4.50;;;4.10;;
76115;SDS011;64847;45.778;12.802;2022-12-18T02:25:53;4.10;;;3.80;;
76115;SDS011;64847;45.778;12.802;2022-12-18T02:28:36;4.20;;;3.90;;
76115;SDS011;64847;45.778;12.802;2022-12-18T02:31:07;4.10;;;3.80;;
76115;SDS011;64847;45.778;12.802;2022-12-18T02:33:36;4.53;;;4.13;;
76115;SDS011;64847;45.778;12.802;2022-12-18T02:36:02;3.83;;;3.63;;
76115;SDS011;64847;45.778;12.802;2022-12-18T02:38:28;5.40;;;5.00;;
76115;SDS011;64847;45.778;12.802;2022-12-18T02:40:54;4.73;;;4.13;;
76115;SDS011;64847;45.778;12.802;2022-12-18T02:43:20;4.67;;;4.27;;
76115;SDS011;64847;45.778;12.802;2022-12-18T02:45:50;4.87;;;4.47;;
76115;SDS011;64847;45.778;12.802;2022-12-18T02:48:20;4.63;;;4.23;;
76115;SDS011;64847;45.778;12.802;2022-12-18T02:51:00;4.47;;;4.07;;
76115;SDS011;64847;45.778;12.802;2022-12-18T02:53:40;4.67;;;4.27;;
76115;SDS011;64847;45.778;12.802;2022-12-18T02:56:10;4.47;;;4.10;;
76115;SDS011;64847;45.778;12.802;2022-12-18T03:02:09;4.03;;;3.73;;
76115;SDS011;64847;45.778;12.802;2022-12-18T03:04:54;4.63;;;4.33;;
76115;SDS011;64847;45.778;12.802;2022-12-18T03:07:26;4.33;;;4.03;;
76115;SDS011;64847;45.778;12.802;2022-12-18T03:09:58;4.23;;;3.93;;
76115;SDS011;64847;45.778;12.802;2022-12-18T03:12:36;4.20;;;3.90;;
76115;SDS011;64847;45.778;12.802;2022-12-18T03:15:04;4.30;;;4.00;;
76115;SDS011;64847;45.778;12.802;2022-12-18T03:17:34;4.60;;;4.20;;
76115;SDS011;64847;45.778;12.802;2022-12-18T03:20:06;4.60;;;4.27;;
76115;SDS011;64847;45.778;12.802;2022-12-18T03:22:35;4.97;;;4.57;;
76115;SDS011;64847;45.778;12.802;2022-12-18T03:25:03;4.57;;;4.23;;
76115;SDS011;64847;45.778;12.802;2022-12-18T03:27:31;5.10;;;4.70;;
76115;SDS011;64847;45.778;12.802;2022-12-18T03:30:10;4.90;;;4.50;;
76115;SDS011;64847;45.778;12.802;2022-12-18T03:35:32;4.90;;;4.50;;
76115;SDS011;64847;45.778;12.802;2022-12-18T03:38:00;4.87;;;4.47;;
76115;SDS011;64847;45.778;12.802;2022-12-18T03:40:27;4.13;;;3.83;;
76115;SDS011;64847;45.778;12.802;2022-12-18T03:42:59;5.23;;;4.77;;
76115;SDS011;64847;45.778;12.802;2022-12-18T03:45:36;5.03;;;4.63;;
76115;SDS011;64847;45.778;12.802;2022-12-18T03:50:42;4.70;;;4.30;;
76115;SDS011;64847;45.778;12.802;2022-12-18T03:53:17;4.50;;;4.20;;
76115;SDS011;64847;45.778;12.802;2022-12-18T03:55:48;5.13;;;4.63;;
76115;SDS011;64847;45.778;12.802;2022-12-18T03:58:15;4.90;;;4.50;;
76115;SDS011;64847;45.778;12.802;2022-12-18T04:00:43;5.07;;;4.57;;
76115;SDS011;64847;45.778;12.802;2022-12-18T04:03:09;4.50;;;4.10;;
76115;SDS011;64847;45.778;12.802;2022-12-18T04:05:35;5.60;;;5.10;;
76115;SDS011;64847;45.778;12.802;2022-12-18T04:08:02;4.97;;;4.57;;
76115;SDS011;64847;45.778;12.802;2022-12-18T04:10:28;5.37;;;4.87;;
76115;SDS011;64847;45.778;12.802;2022-12-18T04:12:57;4.73;;;4.33;;
76115;SDS011;64847;45.778;12.802;2022-12-18T04:15:23;6.27;;;5.10;;
76115;SDS011;64847;45.778;12.802;2022-12-18T04:17:48;5.13;;;4.73;;
76115;SDS011;64847;45.778;12.802;2022-12-18T04:20:14;5.70;;;5.20;;
76115;SDS011;64847;45.778;12.802;2022-12-18T04:22:40;6.07;;;5.57;;
76115;SDS011;64847;45.778;12.802;2022-12-18T04:25:06;5.40;;;4.90;;
76115;SDS011;64847;45.778;12.802;2022-12-18T04:27:32;5.10;;;4.70;;
76115;SDS011;64847;45.778;12.802;2022-12-18T04:29:57;4.90;;;4.50;;
76115;SDS011;64847;45.778;12.802;2022-12-18T04:32:22;5.33;;;4.87;;
76115;SDS011;64847;45.778;12.802;2022-12-18T04:34:48;5.40;;;5.00;;
76115;SDS011;64847;45.778;12.802;2022-12-18T04:37:13;5.77;;;5.27;;
76115;SDS011;64847;45.778;12.802;2022-12-18T04:39:39;5.37;;;4.87;;
76115;SDS011;64847;45.778;12.802;2022-12-18T04:42:04;5.83;;;5.33;;
76115;SDS011;64847;45.778;12.802;2022-12-18T04:44:30;6.03;;;5.53;;
76115;SDS011;64847;45.778;12.802;2022-12-18T04:46:55;5.63;;;5.17;;
76115;SDS011;64847;45.778;12.802;2022-12-18T04:49:20;4.77;;;4.37;;
76115;SDS011;64847;45.778;12.802;2022-12-18T04:51:46;5.30;;;4.80;;
76115;SDS011;64847;45.778;12.802;2022-12-18T04:54:11;5.53;;;5.03;;
76115;SDS011;64847;45.778;12.802;2022-12-18T04:56:37;5.50;;;5.00;;
76115;SDS011;64847;45.778;12.802;2022-12-18T04:59:02;5.63;;;5.13;;
76115;SDS011;64847;45.778;12.802;2022-12-18T05:01:28;5.77;;;5.27;;
76115;SDS011;64847;45.778;12.802;2022-12-18T05:03:53;5.43;;;4.93;;
76115;SDS011;64847;45.778;12.802;2022-12-18T05:06:18;5.50;;;5.00;;
76115;SDS011;64847;45.778;12.802;2022-12-18T05:08:44;6.07;;;5.43;;
76115;SDS011;64847;45.778;12.802;2022-12-18T05:11:13;6.70;;;6.10;;
76115;SDS011;64847;45.778;12.802;2022-12-18T05:13:40;5.47;;;4.97;;
76115;SDS011;64847;45.778;12.802;2022-12-18T05:16:07;6.00;;;5.40;;
76115;SDS011;64847;45.778;12.802;2022-12-18T05:18:32;5.40;;;4.90;;
76115;SDS011;64847;45.778;12.802;2022-12-18T05:20:58;6.10;;;5.50;;
76115;SDS011;64847;45.778;12.802;2022-12-18T05:23:23;5.87;;;5.37;;
76115;SDS011;64847;45.778;12.802;2022-12-18T05:25:59;5.40;;;4.93;;
76115;SDS011;64847;45.778;12.802;2022-12-18T05:28:27;5.73;;;5.17;;
76115;SDS011;64847;45.778;12.802;2022-12-18T05:30:57;7.03;;;5.07;;
76115;SDS011;64847;45.778;12.802;2022-12-18T05:33:24;5.57;;;5.07;;
76115;SDS011;64847;45.778;12.802;2022-12-18T05:35:54;5.83;;;5.10;;
76115;SDS011;64847;45.778;12.802;2022-12-18T05:38:25;6.10;;;5.50;;
76115;SDS011;64847;45.778;12.802;2022-12-18T05:40:51;5.97;;;5.37;;
76115;SDS011;64847;45.778;12.802;2022-12-18T05:43:20;6.10;;;5.50;;
76115;SDS011;64847;45.778;12.802;2022-12-18T05:45:49;6.50;;;5.57;;
76115;SDS011;64847;45.778;12.802;2022-12-18T05:48:15;6.13;;;5.33;;
76115;SDS011;64847;45.778;12.802;2022-12-18T05:50:41;5.57;;;5.07;;
76115;SDS011;64847;45.778;12.802;2022-12-18T05:53:10;5.70;;;5.20;;
76115;SDS011;64847;45.778;12.802;2022-12-18T05:55:36;5.37;;;4.87;;
76115;SDS011;64847;45.778;12.802;2022-12-18T05:58:03;5.60;;;5.10;;
76115;SDS011;64847;45.778;12.802;2022-12-18T06:00:29;5.53;;;4.83;;
76115;SDS011;64847;45.778;12.802;2022-12-18T06:02:55;5.77;;;5.27;;
76115;SDS011;64847;45.778;12.802;2022-12-18T06:05:20;5.37;;;4.87;;
76115;SDS011;64847;45.778;12.802;2022-12-18T06:07:46;5.70;;;5.20;;
76115;SDS011;64847;45.778;12.802;2022-12-18T06:10:11;5.97;;;5.37;;
76115;SDS011;64847;45.778;12.802;2022-12-18T06:12:37;5.40;;;4.90;;
76115;SDS011;64847;45.778;12.802;2022-12-18T06:15:02;5.30;;;4.80;;
76115;SDS011;64847;45.778;12.802;2022-12-18T06:17:29;5.70;;;5.20;;
76115;SDS011;64847;45.778;12.802;2022-12-18T06:19:58;6.10;;;5.50;;
76115;SDS011;64847;45.778;12.802;2022-12-18T06:22:23;5.33;;;4.83;;
76115;SDS011;64847;45.778;12.802;2022-12-18T06:24:49;5.63;;;5.07;;
76115;SDS011;64847;45.778;12.802;2022-12-18T06:27:14;5.73;;;5.23;;
76115;SDS011;64847;45.778;12.802;2022-12-18T06:29:40;5.80;;;5.30;;
76115;SDS011;64847;45.778;12.802;2022-12-18T06:32:05;5.90;;;5.30;;
76115;SDS011;64847;45.778;12.802;2022-12-18T06:34:31;5.27;;;4.87;;
76115;SDS011;64847;45.778;12.802;2022-12-18T06:36:57;5.13;;;4.73;;
76115;SDS011;64847;45.778;12.802;2022-12-18T06:39:23;5.90;;;5.30;;
76115;SDS011;64847;45.778;12.802;2022-12-18T06:41:48;6.40;;;5.63;;
76115;SDS011;64847;45.778;12.802;2022-12-18T06:44:13;6.23;;;5.63;;
76115;SDS011;64847;45.778;12.802;2022-12-18T06:46:39;6.00;;;5.50;;
76115;SDS011;64847;45.778;12.802;2022-12-18T06:49:04;5.77;;;5.27;;
76115;SDS011;64847;45.778;12.802;2022-12-18T06:51:29;5.77;;;5.27;;
76115;SDS011;64847;45.778;12.802;2022-12-18T06:53:55;5.70;;;5.10;;
76115;SDS011;64847;45.778;12.802;2022-12-18T06:56:21;5.67;;;5.20;;
76115;SDS011;64847;45.778;12.802;2022-12-18T06:58:50;5.83;;;5.33;;
76115;SDS011;64847;45.778;12.802;2022-12-18T07:01:15;5.83;;;5.33;;
76115;SDS011;64847;45.778;12.802;2022-12-18T07:03:41;6.67;;;6.07;;
76115;SDS011;64847;45.778;12.802;2022-12-18T07:06:12;6.27;;;5.70;;
76115;SDS011;64847;45.778;12.802;2022-12-18T07:08:39;5.90;;;5.40;;
76115;SDS011;64847;45.778;12.802;2022-12-18T07:11:05;6.17;;;5.57;;
76115;SDS011;64847;45.778;12.802;2022-12-18T07:13:30;5.70;;;5.13;;
76115;SDS011;64847;45.778;12.802;2022-12-18T07:16:03;5.93;;;5.37;;
76115;SDS011;64847;45.778;12.802;2022-12-18T07:18:30;5.93;;;5.43;;
76115;SDS011;64847;45.778;12.802;2022-12-18T07:20:55;6.23;;;5.63;;
76115;SDS011;64847;45.778;12.802;2022-12-18T07:23:20;6.50;;;5.83;;
76115;SDS011;64847;45.778;12.802;2022-12-18T07:25:46;6.37;;;5.77;;
76115;SDS011;64847;45.778;12.802;2022-12-18T07:28:11;5.93;;;5.33;;
76115;SDS011;64847;45.778;12.802;2022-12-18T07:30:37;5.90;;;5.40;;
76115;SDS011;64847;45.778;12.802;2022-12-18T07:33:03;5.77;;;5.27;;
76115;SDS011;64847;45.778;12.802;2022-12-18T07:35:28;5.70;;;5.20;;
76115;SDS011;64847;45.778;12.802;2022-12-18T07:37:54;5.43;;;4.93;;
76115;SDS011;64847;45.778;12.802;2022-12-18T07:40:19;5.70;;;5.20;;
76115;SDS011;64847;45.778;12.802;2022-12-18T07:42:44;6.07;;;5.57;;
76115;SDS011;64847;45.778;12.802;2022-12-18T07:45:10;5.67;;;5.17;;
76115;SDS011;64847;45.778;12.802;2022-12-18T07:47:35;5.80;;;5.30;;
76115;SDS011;64847;45.778;12.802;2022-12-18T07:50:02;5.53;;;5.03;;
76115;SDS011;64847;45.778;12.802;2022-12-18T07:52:28;5.80;;;5.20;;
76115;SDS011;64847;45.778;12.802;2022-12-18T07:54:53;5.83;;;5.33;;
76115;SDS011;64847;45.778;12.802;2022-12-18T07:57:19;5.23;;;4.83;;
76115;SDS011;64847;45.778;12.802;2022-12-18T07:59:44;5.67;;;5.17;;
76115;SDS011;64847;45.778;12.802;2022-12-18T08:02:10;6.00;;;5.50;;
76115;SDS011;64847;45.778;12.802;2022-12-18T08:04:35;5.37;;;4.97;;
76115;SDS011;64847;45.778;12.802;2022-12-18T08:07:00;6.07;;;5.57;;
76115;SDS011;64847;45.778;12.802;2022-12-18T08:09:26;5.77;;;5.27;;
76115;SDS011;64847;45.778;12.802;2022-12-18T08:11:51;6.00;;;5.50;;
76115;SDS011;64847;45.778;12.802;2022-12-18T08:14:17;5.93;;;5.40;;
76115;SDS011;64847;45.778;12.802;2022-12-18T08:16:42;5.97;;;5.47;;
76115;SDS011;64847;45.778;12.802;2022-12-18T08:19:08;5.80;;;5.30;;
76115;SDS011;64847;45.778;12.802;2022-12-18T08:21:35;5.80;;;5.30;;
76115;SDS011;64847;45.778;12.802;2022-12-18T08:24:00;5.97;;;5.47;;
76115;SDS011;64847;45.778;12.802;2022-12-18T08:26:27;5.27;;;4.87;;
76115;SDS011;64847;45.778;12.802;2022-12-18T08:28:54;5.77;;;5.27;;
76115;SDS011;64847;45.778;12.802;2022-12-18T08:31:21;5.60;;;5.10;;
76115;SDS011;64847;45.778;12.802;2022-12-18T08:33:48;5.57;;;5.07;;
76115;SDS011;64847;45.778;12.802;2022-12-18T08:36:14;5.37;;;4.90;;
76115;SDS011;64847;45.778;12.802;2022-12-18T08:38:40;5.33;;;4.83;;
76115;SDS011;64847;45.778;12.802;2022-12-18T08:41:06;5.37;;;4.97;;
76115;SDS011;64847;45.778;12.802;2022-12-18T08:43:36;4.97;;;4.57;;
76115;SDS011;64847;45.778;12.802;2022-12-18T08:46:20;5.27;;;4.77;;
76115;SDS011;64847;45.778;12.802;2022-12-18T08:48:47;5.60;;;5.07;;
76115;SDS011;64847;45.778;12.802;2022-12-18T08:51:13;5.33;;;4.93;;
76115;SDS011;64847;45.778;12.802;2022-12-18T08:53:41;4.67;;;4.27;;
76115;SDS011;64847;45.778;12.802;2022-12-18T08:56:07;5.33;;;4.87;;
76115;SDS011;64847;45.778;12.802;2022-12-18T08:58:32;5.27;;;4.87;;
76115;SDS011;64847;45.778;12.802;2022-12-18T09:01:01;6.17;;;5.67;;
76115;SDS011;64847;45.778;12.802;2022-12-18T09:03:28;6.23;;;5.73;;
76115;SDS011;64847;45.778;12.802;2022-12-18T09:05:53;5.63;;;5.13;;
76115;SDS011;64847;45.778;12.802;2022-12-18T09:08:18;5.63;;;5.13;;
76115;SDS011;64847;45.778;12.802;2022-12-18T09:10:44;5.70;;;5.30;;
76115;SDS011;64847;45.778;12.802;2022-12-18T09:13:11;6.00;;;5.50;;
76115;SDS011;64847;45.778;12.802;2022-12-18T09:15:41;5.87;;;5.40;;
76115;SDS011;64847;45.778;12.802;2022-12-18T09:18:13;5.43;;;5.03;;
76115;SDS011;64847;45.778;12.802;2022-12-18T09:20:39;5.57;;;5.17;;
76115;SDS011;64847;45.778;12.802;2022-12-18T09:23:05;5.87;;;5.37;;
76115;SDS011;64847;45.778;12.802;2022-12-18T09:25:31;4.97;;;4.68;;
76115;SDS011;64847;45.778;12.802;2022-12-18T09:27:58;5.18;;;4.82;;
76115;SDS011;64847;45.778;12.802;2022-12-18T09:30:25;4.57;;;4.28;;
76115;SDS011;64847;45.778;12.802;2022-12-18T09:32:50;5.65;;;5.25;;
76115;SDS011;64847;45.778;12.802;2022-12-18T09:35:15;5.00;;;4.70;;
76115;SDS011;64847;45.778;12.802;2022-12-18T09:37:41;4.70;;;4.40;;
76115;SDS011;64847;45.778;12.802;2022-12-18T09:40:12;5.70;;;5.30;;
76115;SDS011;64847;45.778;12.802;2022-12-18T09:42:39;5.38;;;4.97;;
76115;SDS011;64847;45.778;12.802;2022-12-18T09:45:05;5.28;;;4.88;;
76115;SDS011;64847;45.778;12.802;2022-12-18T09:47:37;5.68;;;5.28;;
76115;SDS011;64847;45.778;12.802;2022-12-18T09:50:04;5.30;;;4.90;;
76115;SDS011;64847;45.778;12.802;2022-12-18T09:52:41;5.10;;;4.70;;
76115;SDS011;64847;45.778;12.802;2022-12-18T09:57:49;5.30;;;4.90;;
76115;SDS011;64847;45.778;12.802;2022-12-18T10:00:18;4.90;;;4.60;;
76115;SDS011;64847;45.778;12.802;2022-12-18T10:02:46;4.78;;;4.47;;
76115;SDS011;64847;45.778;12.802;2022-12-18T10:10:40;4.97;;;4.68;;
76115;SDS011;64847;45.778;12.802;2022-12-18T10:21:21;5.70;;;5.30;;
76115;SDS011;64847;45.778;12.802;2022-12-18T10:24:11;5.00;;;4.68;;
76115;SDS011;64847;45.778;12.802;2022-12-18T10:26:42;5.60;;;5.20;;
76115;SDS011;64847;45.778;12.802;2022-12-18T10:29:12;5.55;;;5.15;;
76115;SDS011;64847;45.778;12.802;2022-12-18T10:31:38;5.57;;;5.07;;
76115;SDS011;64847;45.778;12.802;2022-12-18T10:34:03;5.10;;;4.80;;
76115;SDS011;64847;45.778;12.802;2022-12-18T10:36:29;5.43;;;5.03;;
76115;SDS011;64847;45.778;12.802;2022-12-18T10:39:30;5.50;;;5.15;;
76115;SDS011;64847;45.778;12.802;2022-12-18T10:41:51;5.03;;;4.72;;
76115;SDS011;64847;45.778;12.802;2022-12-18T10:46:46;5.88;;;5.47;;
76115;SDS011;64847;45.778;12.802;2022-12-18T10:49:21;5.68;;;5.28;;
76115;SDS011;64847;45.778;12.802;2022-12-18T10:51:49;5.30;;;4.90;;
76115;SDS011;64847;45.778;12.802;2022-12-18T10:54:16;4.90;;;4.60;;
76115;SDS011;64847;45.778;12.802;2022-12-18T10:56:43;4.93;;;4.63;;
76115;SDS011;64847;45.778;12.802;2022-12-18T10:59:10;5.70;;;5.30;;
76115;SDS011;64847;45.778;12.802;2022-12-18T11:04:27;5.18;;;4.88;;
76115;SDS011;64847;45.778;12.802;2022-12-18T11:06:55;6.10;;;5.70;;
76115;SDS011;64847;45.778;12.802;2022-12-18T11:09:23;5.90;;;5.50;;
76115;SDS011;64847;45.778;12.802;2022-12-18T11:12:02;5.60;;;5.22;;
76115;SDS011;64847;45.778;12.802;2022-12-18T11:14:41;5.95;;;5.55;;
76115;SDS011;64847;45.778;12.802;2022-12-18T11:17:18;5.80;;;5.40;;
76115;SDS011;64847;45.778;12.802;2022-12-18T11:19:55;6.15;;;5.75;;
76115;SDS011;64847;45.778;12.802;2022-12-18T11:24:59;5.50;;;5.13;;
76115;SDS011;64847;45.778;12.802;2022-12-18T11:27:26;5.18;;;4.80;;
76115;SDS011;64847;45.778;12.802;2022-12-18T11:30:06;5.80;;;5.40;;
76115;SDS011;64847;45.778;12.802;2022-12-18T11:32:34;5.95;;;5.55;;
76115;SDS011;64847;45.778;12.802;2022-12-18T11:35:13;5.90;;;5.50;;
76115;SDS011;64847;45.778;12.802;2022-12-18T11:37:47;5.70;;;5.30;;
76115;SDS011;64847;45.778;12.802;2022-12-18T11:40:17;6.65;;;6.07;;
76115;SDS011;64847;45.778;12.802;2022-12-18T11:45:35;5.80;;;5.40;;
76115;SDS011;64847;45.778;12.802;2022-12-18T11:50:57;6.18;;;5.78;;
76115;SDS011;64847;45.778;12.802;2022-12-18T11:53:24;6.47;;;6.07;;
76115;SDS011;64847;45.778;12.802;2022-12-18T11:55:55;6.00;;;5.60;;
76115;SDS011;64847;45.778;12.802;2022-12-18T12:14:47;6.38;;;5.85;;
76115;SDS011;64847;45.778;12.802;2022-12-18T12:22:52;6.20;;;5.70;;
76115;SDS011;64847;45.778;12.802;2022-12-18T12:30:21;5.63;;;5.22;;
76115;SDS011;64847;45.778;12.802;2022-12-18T12:38:24;5.22;;;4.93;;
76115;SDS011;64847;45.778;12.802;2022-12-18T12:41:02;5.28;;;4.97;;
76115;SDS011;64847;45.778;12.802;2022-12-18T12:46:09;5.40;;;5.07;;
76115;SDS011;64847;45.778;12.802;2022-12-18T12:51:36;5.40;;;5.07;;
76115;SDS011;64847;45.778;12.802;2022-12-18T12:54:04;5.18;;;4.88;;
76115;SDS011;64847;45.778;12.802;2022-12-18T12:56:54;5.20;;;4.90;;
76115;SDS011;64847;45.778;12.802;2022-12-18T13:20:51;6.00;;;5.53;;
76115;SDS011;64847;45.778;12.802;2022-12-18T13:23:28;5.43;;;4.93;;
76115;SDS011;64847;45.778;12.802;2022-12-18T13:31:15;5.37;;;4.87;;
76115;SDS011;64847;45.778;12.802;2022-12-18T13:36:50;5.70;;;5.20;;
76115;SDS011;64847;45.778;12.802;2022-12-18T13:41:48;5.83;;;5.33;;
76115;SDS011;64847;45.778;12.802;2022-12-18T13:44:34;5.50;;;5.00;;
76115;SDS011;64847;45.778;12.802;2022-12-18T13:47:01;5.17;;;4.73;;
76115;SDS011;64847;45.778;12.802;2022-12-18T13:49:39;5.30;;;4.90;;
76115;SDS011;64847;45.778;12.802;2022-12-18T13:52:21;5.50;;;5.10;;
76115;SDS011;64847;45.778;12.802;2022-12-18T13:54:51;5.67;;;5.17;;
76115;SDS011;64847;45.778;12.802;2022-12-18T13:57:28;4.97;;;4.47;;
76115;SDS011;64847;45.778;12.802;2022-12-18T13:59:56;4.77;;;4.40;;
76115;SDS011;64847;45.778;12.802;2022-12-18T14:02:25;5.10;;;4.70;;
76115;SDS011;64847;45.778;12.802;2022-12-18T14:04:53;4.83;;;4.43;;
76115;SDS011;64847;45.778;12.802;2022-12-18T14:07:20;5.33;;;4.83;;
76115;SDS011;64847;45.778;12.802;2022-12-18T14:09:51;4.87;;;4.37;;
76115;SDS011;64847;45.778;12.802;2022-12-18T14:12:20;4.13;;;3.83;;
76115;SDS011;64847;45.778;12.802;2022-12-18T14:15:06;4.23;;;3.93;;
76115;SDS011;64847;45.778;12.802;2022-12-18T14:18:00;5.07;;;4.67;;
76115;SDS011;64847;45.778;12.802;2022-12-18T14:20:27;4.37;;;4.03;;
76115;SDS011;64847;45.778;12.802;2022-12-18T14:22:54;5.07;;;4.67;;
76115;SDS011;64847;45.778;12.802;2022-12-18T14:27:48;4.83;;;4.43;;
76115;SDS011;64847;45.778;12.802;2022-12-18T14:30:29;4.27;;;3.97;;
76115;SDS011;64847;45.778;12.802;2022-12-18T14:33:04;5.43;;;5.00;;
76115;SDS011;64847;45.778;12.802;2022-12-18T14:35:33;5.27;;;4.77;;
76115;SDS011;64847;45.778;12.802;2022-12-18T14:38:10;5.47;;;5.07;;
76115;SDS011;64847;45.778;12.802;2022-12-18T14:40:36;5.50;;;5.00;;
76115;SDS011;64847;45.778;12.802;2022-12-18T14:43:02;5.53;;;5.03;;
76115;SDS011;64847;45.778;12.802;2022-12-18T14:48:00;5.33;;;4.83;;
76115;SDS011;64847;45.778;12.802;2022-12-18T14:50:26;5.07;;;4.67;;
76115;SDS011;64847;45.778;12.802;2022-12-18T14:52:51;4.70;;;4.40;;
76115;SDS011;64847;45.778;12.802;2022-12-18T14:55:17;4.83;;;4.43;;
76115;SDS011;64847;45.778;12.802;2022-12-18T14:57:44;4.87;;;4.47;;
76115;SDS011;64847;45.778;12.802;2022-12-18T15:00:17;4.93;;;4.43;;
76115;SDS011;64847;45.778;12.802;2022-12-18T15:02:46;5.57;;;5.07;;
76115;SDS011;64847;45.778;12.802;2022-12-18T15:05:19;5.57;;;4.63;;
76115;SDS011;64847;45.778;12.802;2022-12-18T15:07:50;6.50;;;4.80;;
76115;SDS011;64847;45.778;12.802;2022-12-18T15:12:49;4.97;;;4.57;;
76115;SDS011;64847;45.778;12.802;2022-12-18T15:18:03;5.13;;;4.63;;
76115;SDS011;64847;45.778;12.802;2022-12-18T15:20:39;5.03;;;4.63;;
76115;SDS011;64847;45.778;12.802;2022-12-18T15:26:02;4.60;;;4.20;;
76115;SDS011;64847;45.778;12.802;2022-12-18T15:28:31;4.83;;;4.43;;
76115;SDS011;64847;45.778;12.802;2022-12-18T15:30:57;4.83;;;4.43;;
76115;SDS011;64847;45.778;12.802;2022-12-18T15:33:32;5.00;;;4.50;;
76115;SDS011;64847;45.778;12.802;2022-12-18T15:36:00;9.17;;;4.93;;
76115;SDS011;64847;45.778;12.802;2022-12-18T15:38:26;5.03;;;4.53;;
76115;SDS011;64847;45.778;12.802;2022-12-18T15:40:52;6.00;;;5.40;;
76115;SDS011;64847;45.778;12.802;2022-12-18T15:43:20;5.40;;;4.90;;
76115;SDS011;64847;45.778;12.802;2022-12-18T15:45:59;5.50;;;5.07;;
76115;SDS011;64847;45.778;12.802;2022-12-18T15:48:28;5.37;;;4.90;;
76115;SDS011;64847;45.778;12.802;2022-12-18T15:50:54;5.30;;;4.80;;
76115;SDS011;64847;45.778;12.802;2022-12-18T15:53:22;5.83;;;5.20;;
76115;SDS011;64847;45.778;12.802;2022-12-18T15:55:48;5.90;;;5.30;;
76115;SDS011;64847;45.778;12.802;2022-12-18T15:58:32;5.87;;;5.33;;
76115;SDS011;64847;45.778;12.802;2022-12-18T16:00:58;5.47;;;4.97;;
76115;SDS011;64847;45.778;12.802;2022-12-18T16:03:24;5.70;;;5.13;;
76115;SDS011;64847;45.778;12.802;2022-12-18T16:05:49;5.57;;;4.87;;
76115;SDS011;64847;45.778;12.802;2022-12-18T16:08:15;6.30;;;5.67;;
76115;SDS011;64847;45.778;12.802;2022-12-18T16:10:40;5.70;;;5.17;;
76115;SDS011;64847;45.778;12.802;2022-12-18T16:13:06;5.53;;;4.97;;
76115;SDS011;64847;45.778;12.802;2022-12-18T16:15:35;6.37;;;5.33;;
76115;SDS011;64847;45.778;12.802;2022-12-18T16:18:00;6.27;;;5.53;;
76115;SDS011;64847;45.778;12.802;2022-12-18T16:20:26;6.37;;;5.07;;
76115;SDS011;64847;45.778;12.802;2022-12-18T16:22:51;5.73;;;5.13;;
76115;SDS011;64847;45.778;12.802;2022-12-18T16:25:22;6.00;;;5.00;;
76115;SDS011;64847;45.778;12.802;2022-12-18T16:27:49;6.23;;;5.47;;
76115;SDS011;64847;45.778;12.802;2022-12-18T16:30:16;6.43;;;5.30;;
76115;SDS011;64847;45.778;12.802;2022-12-18T16:32:45;5.33;;;4.83;;
76115;SDS011;64847;45.778;12.802;2022-12-18T16:35:11;6.40;;;5.80;;
76115;SDS011;64847;45.778;12.802;2022-12-18T16:37:38;7.00;;;6.30;;
76115;SDS011;64847;45.778;12.802;2022-12-18T16:40:04;6.53;;;5.40;;
76115;SDS011;64847;45.778;12.802;2022-12-18T16:42:30;6.30;;;5.70;;
76115;SDS011;64847;45.778;12.802;2022-12-18T16:44:56;6.73;;;5.40;;
76115;SDS011;64847;45.778;12.802;2022-12-18T16:47:21;7.53;;;6.03;;
76115;SDS011;64847;45.778;12.802;2022-12-18T16:49:46;7.87;;;6.43;;
76115;SDS011;64847;45.778;12.802;2022-12-18T16:52:15;6.60;;;5.93;;
76115;SDS011;64847;45.778;12.802;2022-12-18T16:54:41;6.50;;;5.80;;
76115;SDS011;64847;45.778;12.802;2022-12-18T16:57:06;6.20;;;5.60;;